Time;durP1;ratioP1;P1;durP2;ratioP2;P2;SDS_P1;SDS_P2;PMS_P1;PMS_P2;Temp;Humidity;BMP_temperature;BMP_pressure;BME280_temperature;BME280_humidity;BME280_pressure;Samples;Min_cycle;Max_cycle;Signal;HPM_P1;HPM_P2
2022/05/13 00:01:07;;;;;;;3.95;1.17;;;14.90;54.30;;;;;;5096422;28;20021;-67
2022/05/13 00:03:33;;;;;;;5.90;1.50;;;14.80;54.60;;;;;;5114449;28;20042;-67
2022/05/13 00:05:59;;;;;;;6.50;1.13;;;14.80;55.00;;;;;;5096462;28;20028;-67
2022/05/13 00:08:25;;;;;;;5.35;1.45;;;14.70;55.20;;;;;;5096257;28;20035;-67
2022/05/13 00:10:51;;;;;;;3.45;1.20;;;14.60;55.60;;;;;;5114237;28;20024;-67
2022/05/13 00:13:17;;;;;;;5.10;1.60;;;14.60;55.70;;;;;;5114202;28;20058;-67
2022/05/13 00:15:44;;;;;;;5.40;1.50;;;14.50;55.90;;;;;;5096074;28;20039;-68
2022/05/13 00:18:10;;;;;;;4.60;1.48;;;14.50;56.10;;;;;;5113928;28;20048;-69
2022/05/13 00:20:37;;;;;;;6.88;1.73;;;14.50;56.30;;;;;;5114221;28;20020;-69
2022/05/13 00:23:03;;;;;;;5.63;1.65;;;14.50;56.40;;;;;;5096058;28;20019;-69
2022/05/13 00:25:32;;;;;;;4.82;1.67;;;14.40;56.60;;;;;;5114043;28;20072;-68
2022/05/13 00:28:00;;;;;;;3.55;1.58;;;14.30;57.70;;;;;;5113908;28;20020;-68
2022/05/13 00:30:28;;;;;;;5.00;1.70;;;14.30;57.10;;;;;;5113954;28;20034;-69
2022/05/13 00:32:54;;;;;;;4.38;1.80;;;14.20;57.20;;;;;;5095901;28;20088;-69
2022/05/13 00:35:21;;;;;;;5.28;1.80;;;14.10;57.50;;;;;;5113761;28;20020;-68
2022/05/13 00:37:47;;;;;;;4.00;1.90;;;14.10;57.80;;;;;;5113793;28;20023;-68
2022/05/13 00:40:14;;;;;;;3.03;1.50;;;14.00;58.20;;;;;;5113740;28;20032;-68
2022/05/13 00:42:41;;;;;;;8.43;2.72;;;14.00;58.30;;;;;;5113713;28;20080;-69
2022/05/13 00:45:08;;;;;;;3.67;1.73;;;13.90;58.70;;;;;;5095738;28;20039;-69
2022/05/13 00:47:33;;;;;;;5.55;1.55;;;13.90;58.80;;;;;;5095969;28;20028;-69
2022/05/13 00:50:01;;;;;;;5.18;1.55;;;13.90;59.00;;;;;;5113468;28;20034;-69
2022/05/13 00:52:27;;;;;;;7.43;1.83;;;13.90;59.10;;;;;;5113605;28;20024;-69
2022/05/13 00:54:55;;;;;;;3.58;1.52;;;13.80;59.20;;;;;;5113509;28;20028;-69
2022/05/13 00:57:22;;;;;;;4.75;1.85;;;13.80;59.50;;;;;;5095695;28;20514;-68
2022/05/13 00:59:50;;;;;;;6.57;2.05;;;13.70;59.60;;;;;;5113519;28;20024;-69
2022/05/13 01:02:16;;;;;;;6.53;2.00;;;13.70;59.90;;;;;;5095674;28;20023;-69
2022/05/13 01:04:43;;;;;;;3.45;1.73;;;13.60;60.00;;;;;;5113392;28;20027;-69
2022/05/13 01:07:16;;;;;;;6.25;2.30;;;13.60;60.30;;;;;;5113435;28;20036;-69
2022/05/13 01:09:54;;;;;;;7.25;2.05;;;13.60;60.50;;;;;;5113559;28;20020;-68
2022/05/13 01:12:26;;;;;;;7.28;2.15;;;13.50;60.70;;;;;;5113528;28;20105;-67
2022/05/13 01:15:14;;;;;;;7.10;2.30;;;13.30;61.30;;;;;;5113342;28;20035;-67
2022/05/13 01:20:29;;;;;;;5.50;2.30;;;13.20;62.10;;;;;;5113557;28;20047;-67
2022/05/13 01:23:02;;;;;;;7.88;2.40;;;13.20;62.40;;;;;;5113170;28;20105;-67
2022/05/13 01:25:33;;;;;;;6.18;2.03;;;13.20;62.80;;;;;;5113319;28;20028;-68
2022/05/13 01:28:14;;;;;;;8.27;2.28;;;13.20;62.90;;;;;;5095276;28;20028;-67
2022/05/13 01:30:44;;;;;;;4.35;2.08;;;13.20;63.20;;;;;;5113261;28;20031;-67
2022/05/13 01:33:11;;;;;;;5.75;2.08;;;13.20;63.20;;;;;;5112861;28;20046;-67
2022/05/13 01:35:42;;;;;;;6.70;2.50;;;13.10;63.00;;;;;;5113056;28;20024;-67
2022/05/13 01:38:09;;;;;;;9.27;2.17;;;13.10;63.00;;;;;;5113212;28;20024;-67
2022/05/13 01:40:35;;;;;;;9.23;2.38;;;13.20;63.10;;;;;;5095211;28;20375;-67
2022/05/13 01:43:00;;;;;;;8.20;2.42;;;13.20;63.10;;;;;;5113069;28;20035;-67
2022/05/13 01:45:26;;;;;;;8.38;2.47;;;13.20;63.40;;;;;;5113070;28;20042;-67
2022/05/13 01:47:52;;;;;;;8.10;2.83;;;13.20;63.20;;;;;;5113167;28;20115;-67
2022/05/13 01:50:18;;;;;;;6.25;2.47;;;13.20;63.40;;;;;;5113060;28;20024;-67
2022/05/13 01:52:43;;;;;;;7.75;2.55;;;13.20;63.30;;;;;;5113008;28;20107;-66
2022/05/13 01:55:09;;;;;;;8.07;2.70;;;13.20;63.50;;;;;;5112904;28;20036;-66
2022/05/13 01:57:35;;;;;;;5.88;2.58;;;13.10;64.10;;;;;;5112962;28;20054;-67
2022/05/13 02:00:01;;;;;;;7.50;2.60;;;13.00;64.10;;;;;;5112917;28;20028;-67
2022/05/13 02:02:27;;;;;;;6.63;2.67;;;13.10;64.30;;;;;;5095634;28;20020;-67
2022/05/13 02:04:53;;;;;;;5.90;2.50;;;13.10;64.30;;;;;;5116687;28;20036;-68
2022/05/13 02:07:18;;;;;;;7.40;2.80;;;13.10;64.90;;;;;;5116757;28;20036;-68
2022/05/13 02:09:44;;;;;;;6.65;2.28;;;13.00;64.90;;;;;;5116753;28;20039;-68
2022/05/13 02:12:10;;;;;;;6.22;2.28;;;12.90;66.00;;;;;;5116578;28;20028;-68
2022/05/13 02:14:35;;;;;;;5.50;2.28;;;12.90;65.30;;;;;;5116430;28;20029;-67
2022/05/13 02:17:01;;;;;;;6.47;2.42;;;13.00;65.40;;;;;;5116482;28;20024;-67
2022/05/13 02:19:27;;;;;;;4.85;2.13;;;13.00;65.20;;;;;;5116317;28;20066;-68
2022/05/13 02:21:52;;;;;;;4.47;2.10;;;13.00;65.30;;;;;;5116382;28;20054;-67
2022/05/13 02:24:18;;;;;;;7.50;2.22;;;13.00;65.30;;;;;;5098424;28;20020;-67
2022/05/13 02:26:44;;;;;;;6.63;2.25;;;13.00;65.30;;;;;;5116274;28;20035;-67
2022/05/13 02:29:10;;;;;;;6.85;2.30;;;13.00;65.20;;;;;;5116179;28;20028;-67
2022/05/13 02:31:36;;;;;;;6.07;2.10;;;12.90;65.10;;;;;;5116219;28;20028;-67
2022/05/13 02:34:01;;;;;;;7.40;2.10;;;12.90;65.20;;;;;;5116067;28;20032;-67
2022/05/13 02:36:27;;;;;;;6.57;2.00;;;12.90;65.10;;;;;;5116105;28;20037;-67
2022/05/13 02:38:53;;;;;;;4.53;2.25;;;12.90;64.90;;;;;;5116051;28;20016;-67
2022/05/13 02:41:18;;;;;;;9.60;2.15;;;12.90;64.90;;;;;;5116008;28;20172;-68
2022/05/13 02:43:53;;;;;;;4.35;2.15;;;12.90;64.70;;;;;;5115982;28;20032;-67
2022/05/13 02:46:25;;;;;;;5.22;2.33;;;12.90;64.70;;;;;;5115927;28;20035;-67
2022/05/13 02:48:51;;;;;;;7.57;2.13;;;12.90;64.70;;;;;;5115909;28;20062;-67
2022/05/13 02:51:17;;;;;;;6.88;2.13;;;12.90;64.80;;;;;;5115918;28;20039;-67
2022/05/13 02:53:43;;;;;;;6.70;2.42;;;12.90;65.00;;;;;;5115757;28;20028;-66
2022/05/13 02:56:09;;;;;;;7.97;1.90;;;12.80;65.40;;;;;;5115679;28;20099;-67
2022/05/13 02:58:36;;;;;;;8.73;2.80;;;12.80;65.70;;;;;;5115692;28;20024;-67
2022/05/13 03:01:02;;;;;;;7.35;2.42;;;12.80;65.80;;;;;;5115624;28;20045;-67
2022/05/13 03:03:30;;;;;;;7.55;2.47;;;12.80;65.50;;;;;;5098030;28;20031;-67
2022/05/13 03:05:56;;;;;;;6.18;2.50;;;12.90;65.60;;;;;;5115690;28;20017;-67
2022/05/13 03:08:21;;;;;;;8.60;2.53;;;12.90;65.80;;;;;;5115482;28;20035;-67
2022/05/13 03:10:47;;;;;;;8.05;2.45;;;12.90;65.90;;;;;;5115421;28;20032;-67
2022/05/13 03:13:16;;;;;;;6.38;2.50;;;12.90;65.80;;;;;;5115267;28;20027;-67
2022/05/13 03:15:42;;;;;;;9.43;2.88;;;12.90;66.40;;;;;;5115280;28;20024;-67
2022/05/13 03:18:07;;;;;;;8.95;2.97;;;12.90;66.90;;;;;;5115132;28;20517;-67
2022/05/13 03:20:33;;;;;;;9.23;2.78;;;12.80;67.30;;;;;;5115224;28;20032;-67
2022/05/13 03:22:59;;;;;;;7.03;2.60;;;12.80;67.50;;;;;;5115173;28;20035;-67
2022/05/13 03:25:24;;;;;;;6.88;2.50;;;12.80;67.70;;;;;;5115143;28;20043;-67
2022/05/13 03:27:50;;;;;;;8.18;2.88;;;12.80;67.30;;;;;;5115051;28;20030;-68
2022/05/13 03:30:18;;;;;;;7.43;2.65;;;12.80;67.50;;;;;;5115069;28;20463;-67
2022/05/13 03:32:44;;;;;;;8.82;3.03;;;12.90;67.50;;;;;;5114974;28;20024;-67
2022/05/13 03:35:12;;;;;;;8.35;3.17;;;12.90;67.80;;;;;;5114848;28;20028;-66
2022/05/13 03:37:38;;;;;;;7.18;2.58;;;12.90;67.80;;;;;;5114929;28;20045;-67
2022/05/13 03:40:05;;;;;;;13.30;3.10;;;12.90;67.80;;;;;;5114876;28;20024;-67
2022/05/13 03:42:30;;;;;;;6.05;2.70;;;12.80;68.10;;;;;;5114824;28;20021;-68
2022/05/13 03:44:56;;;;;;;12.90;3.10;;;12.80;68.50;;;;;;5114750;28;20028;-67
2022/05/13 03:47:22;;;;;;;7.47;2.55;;;12.90;68.00;;;;;;5114698;28;20084;-68
2022/05/13 03:49:48;;;;;;;9.73;2.92;;;12.90;68.80;;;;;;5114699;28;20024;-68
2022/05/13 03:52:14;;;;;;;11.68;2.90;;;12.80;68.70;;;;;;5114670;28;20028;-67
2022/05/13 03:54:40;;;;;;;9.32;3.20;;;12.80;69.20;;;;;;5114525;28;20028;-68
2022/05/13 03:57:09;;;;;;;6.88;3.05;;;12.80;68.70;;;;;;5114530;28;20070;-67
2022/05/13 03:59:36;;;;;;;7.50;2.80;;;12.80;68.90;;;;;;5096482;28;20028;-67
2022/05/13 04:02:03;;;;;;;8.05;3.05;;;12.80;69.40;;;;;;5114435;28;20020;-68
2022/05/13 04:04:29;;;;;;;9.95;3.65;;;12.80;69.10;;;;;;5114318;28;20032;-67
2022/05/13 04:09:42;;;;;;;15.77;4.30;;;12.80;69.30;;;;;;5114439;28;20039;-68
2022/05/13 04:17:39;;;;;;;8.25;2.97;;;12.70;70.60;;;;;;5114029;28;20084;-68
2022/05/13 04:20:06;;;;;;;11.38;3.47;;;12.60;70.70;;;;;;5114340;28;20049;-68
2022/05/13 04:22:32;;;;;;;14.68;4.28;;;12.60;70.80;;;;;;5114078;28;20031;-68
2022/05/13 04:24:57;;;;;;;11.48;3.50;;;12.70;70.40;;;;;;5113614;28;20024;-68
2022/05/13 04:27:23;;;;;;;11.07;3.60;;;12.60;71.10;;;;;;5113914;28;20518;-68
2022/05/13 04:29:49;;;;;;;11.23;3.80;;;12.70;70.70;;;;;;5114025;28;20065;-68
2022/05/13 04:32:14;;;;;;;9.43;3.55;;;12.70;70.90;;;;;;5113871;28;20366;-68
2022/05/13 04:34:40;;;;;;;12.85;3.42;;;12.60;71.20;;;;;;5113787;28;20054;-68
2022/05/13 04:37:06;;;;;;;7.13;3.20;;;12.70;71.30;;;;;;5113965;28;20031;-68
2022/05/13 04:39:31;;;;;;;9.55;3.78;;;12.60;71.10;;;;;;5113791;28;20024;-68
2022/05/13 04:44:42;;;;;;;17.02;3.83;;;12.60;72.00;;;;;;5113825;28;20042;-67
2022/05/13 04:48:15;;;;;;;6.38;3.35;;;12.70;71.60;;;;;;5113653;28;20032;-68
2022/05/13 04:49:54;;;;;;;10.38;3.67;;;12.60;72.10;;;;;;5113454;28;20039;-68
2022/05/13 04:52:19;;;;;;;12.23;4.07;;;12.60;72.20;;;;;;5113664;28;20032;-68
2022/05/13 04:54:45;;;;;;;11.35;3.90;;;12.70;71.80;;;;;;5113530;28;20053;-68
2022/05/13 04:57:11;;;;;;;10.88;3.63;;;12.70;72.40;;;;;;5113566;28;20028;-68
2022/05/13 04:59:36;;;;;;;8.95;3.60;;;12.70;72.70;;;;;;5113528;28;20028;-68
2022/05/13 05:02:02;;;;;;;14.27;4.47;;;12.60;73.00;;;;;;5095551;28;20100;-68
2022/05/13 05:04:28;;;;;;;11.20;4.20;;;12.60;73.00;;;;;;5113451;28;20075;-68
2022/05/13 05:06:53;;;;;;;11.18;4.35;;;12.60;73.00;;;;;;5095537;28;20469;-68
2022/05/13 05:09:19;;;;;;;15.27;4.50;;;12.60;73.10;;;;;;5095668;28;20091;-67
2022/05/13 05:11:45;;;;;;;13.15;3.67;;;12.70;73.00;;;;;;5095558;28;20020;-67
2022/05/13 05:14:11;;;;;;;14.93;4.30;;;12.80;73.60;;;;;;5078692;28;20020;-67
2022/05/13 05:16:37;;;;;;;12.93;4.30;;;12.80;73.20;;;;;;5113305;28;20049;-68
2022/05/13 05:19:02;;;;;;;9.40;4.57;;;12.80;72.90;;;;;;5112993;28;20044;-67
2022/05/13 05:21:28;;;;;;;12.45;4.28;;;12.90;72.90;;;;;;5113225;28;20048;-67
2022/05/13 05:23:55;;;;;;;13.30;4.75;;;12.90;73.10;;;;;;5095440;28;20087;-68
2022/05/13 05:26:21;;;;;;;13.43;4.85;;;12.90;73.40;;;;;;5095411;28;20024;-67
2022/05/13 05:28:47;;;;;;;12.35;4.40;;;12.90;72.90;;;;;;5113156;28;20028;-67
2022/05/13 05:31:13;;;;;;;14.73;4.72;;;13.00;73.30;;;;;;5113185;28;20020;-68
2022/05/13 05:33:39;;;;;;;10.40;4.60;;;13.00;73.50;;;;;;5113195;28;20035;-67
2022/05/13 05:36:05;;;;;;;12.75;4.43;;;13.00;73.20;;;;;;5113075;28;20113;-68
2022/05/13 05:38:31;;;;;;;14.95;4.30;;;13.10;73.60;;;;;;5115571;28;20024;-68
2022/05/13 05:40:59;;;;;;;15.00;4.60;;;13.00;73.20;;;;;;5117168;28;20088;-68
2022/05/13 05:43:27;;;;;;;13.40;4.35;;;13.00;72.90;;;;;;5117132;28;20028;-68
2022/05/13 05:45:53;;;;;;;12.40;4.78;;;13.10;73.30;;;;;;5117062;28;20042;-68
2022/05/13 05:48:23;;;;;;;11.43;4.53;;;13.10;72.90;;;;;;5117041;28;20024;-68
2022/05/13 05:50:54;;;;;;;11.02;3.90;;;13.20;73.00;;;;;;5117152;28;20039;-68
2022/05/13 05:57:13;;;;;;;13.48;5.03;;;13.20;73.00;;;;;;5116942;28;20061;-68
2022/05/13 05:58:58;;;;;;;13.85;4.80;;;13.30;73.10;;;;;;5117107;28;20035;-68
2022/05/13 06:01:23;;;;;;;12.95;5.00;;;13.30;72.80;;;;;;5116689;28;20066;-68
2022/05/13 06:03:49;;;;;;;14.40;5.47;;;13.30;73.00;;;;;;5116646;28;20069;-69
2022/05/13 06:06:15;;;;;;;13.95;4.88;;;13.30;73.40;;;;;;5098721;28;20082;-68
2022/05/13 06:08:41;;;;;;;14.90;4.93;;;13.30;73.10;;;;;;5116688;28;20024;-68
2022/05/13 06:11:07;;;;;;;15.10;5.40;;;13.30;73.30;;;;;;5116631;28;20044;-67
2022/05/13 06:13:33;;;;;;;17.10;5.20;;;13.40;73.50;;;;;;5116563;28;20020;-68
2022/05/13 06:15:59;;;;;;;17.35;5.32;;;13.40;73.40;;;;;;5098468;28;20057;-67
2022/05/13 06:18:24;;;;;;;13.45;4.80;;;13.50;73.70;;;;;;5116340;28;20048;-67
2022/05/13 06:20:50;;;;;;;16.50;5.30;;;13.50;73.70;;;;;;5116449;28;20016;-67
2022/05/13 06:23:16;;;;;;;11.00;4.78;;;13.50;73.30;;;;;;5116358;28;20028;-67
2022/05/13 06:25:41;;;;;;;11.88;4.95;;;13.60;73.20;;;;;;5116332;28;20024;-68
2022/05/13 06:28:07;;;;;;;15.57;5.35;;;13.70;73.10;;;;;;5116150;28;20039;-68
2022/05/13 06:30:35;;;;;;;14.77;5.40;;;13.70;73.30;;;;;;5116237;28;20032;-68
2022/05/13 06:33:02;;;;;;;14.63;5.70;;;13.70;73.00;;;;;;5116185;28;20024;-68
2022/05/13 06:35:30;;;;;;;13.63;5.75;;;13.60;73.50;;;;;;5116074;28;20063;-68
2022/05/13 06:37:55;;;;;;;13.38;5.10;;;13.70;73.40;;;;;;5116091;28;20024;-69
2022/05/13 06:40:25;;;;;;;14.63;5.78;;;13.80;73.80;;;;;;5116024;28;20027;-68
2022/05/13 06:42:52;;;;;;;13.48;5.45;;;13.80;73.20;;;;;;5116195;28;20031;-69
2022/05/13 06:45:18;;;;;;;13.20;5.25;;;13.90;73.50;;;;;;5115968;28;20024;-69
2022/05/13 06:47:44;;;;;;;14.13;6.32;;;13.90;73.20;;;;;;5115933;28;20024;-68
2022/05/13 06:50:12;;;;;;;17.15;6.07;;;13.90;73.20;;;;;;5115446;28;20040;-69
2022/05/13 06:52:38;;;;;;;12.75;5.70;;;14.00;73.00;;;;;;5115833;28;20016;-69
2022/05/13 06:55:05;;;;;;;14.38;5.72;;;14.00;73.10;;;;;;5115680;28;20089;-69
2022/05/13 06:57:31;;;;;;;13.40;6.10;;;14.10;73.30;;;;;;5115644;28;20027;-69
2022/05/13 06:59:57;;;;;;;15.48;6.10;;;14.20;73.00;;;;;;5115686;28;20044;-68
2022/05/13 07:02:23;;;;;;;13.52;6.28;;;14.20;73.00;;;;;;5115628;28;20024;-68
2022/05/13 07:04:49;;;;;;;15.43;6.53;;;14.20;72.70;;;;;;5115604;28;20024;-68
2022/05/13 07:07:15;;;;;;;16.58;6.60;;;14.30;72.40;;;;;;5081014;28;20102;-68
2022/05/13 07:09:41;;;;;;;13.98;6.65;;;14.30;72.30;;;;;;5097441;28;20020;-67
2022/05/13 07:12:08;;;;;;;16.02;7.13;;;14.40;71.90;;;;;;5115409;28;20442;-68
2022/05/13 07:14:35;;;;;;;17.73;6.97;;;14.40;72.00;;;;;;5115460;28;20127;-68
2022/05/13 07:17:01;;;;;;;16.88;7.10;;;14.30;72.00;;;;;;5115334;28;20510;-68
2022/05/13 07:19:27;;;;;;;16.33;7.60;;;14.40;72.70;;;;;;5115137;28;20040;-69
2022/05/13 07:21:53;;;;;;;16.20;7.57;;;14.30;71.40;;;;;;5097367;28;20034;-69
2022/05/13 07:24:19;;;;;;;21.17;7.82;;;14.30;72.00;;;;;;5097138;28;20531;-69
2022/05/13 07:26:45;;;;;;;19.17;8.20;;;14.40;72.00;;;;;;5115119;28;20028;-69
2022/05/13 07:29:11;;;;;;;17.45;8.10;;;14.50;71.70;;;;;;5097005;28;20017;-69
2022/05/13 07:31:39;;;;;;;16.77;7.43;;;14.70;72.70;;;;;;5115074;28;20040;-68
2022/05/13 07:34:05;;;;;;;14.63;7.38;;;14.70;71.30;;;;;;5114995;28;20016;-69
2022/05/13 07:36:31;;;;;;;16.88;7.38;;;14.70;70.80;;;;;;5114951;28;20050;-69
2022/05/13 07:41:42;;;;;;;14.80;6.88;;;14.90;71.60;;;;;;5115119;28;20096;-68
2022/05/13 07:44:07;;;;;;;15.38;7.10;;;14.90;71.30;;;;;;5114820;28;20016;-68
2022/05/13 07:46:33;;;;;;;15.65;7.35;;;15.00;70.50;;;;;;5096931;28;20054;-69
2022/05/13 07:48:59;;;;;;;14.55;6.80;;;15.00;69.60;;;;;;5114724;28;20047;-69
2022/05/13 07:51:26;;;;;;;16.58;7.30;;;15.10;69.80;;;;;;5114623;28;20433;-69
2022/05/13 07:53:52;;;;;;;11.98;7.03;;;15.10;70.20;;;;;;5096664;28;20027;-69
2022/05/13 07:56:18;;;;;;;16.77;7.65;;;15.20;70.50;;;;;;5096591;28;20034;-69
2022/05/13 07:58:44;;;;;;;14.70;6.32;;;15.30;70.20;;;;;;5114545;28;20031;-69
2022/05/13 08:01:09;;;;;;;15.00;7.10;;;15.40;68.60;;;;;;5113638;28;20084;-69
2022/05/13 08:03:35;;;;;;;14.00;7.05;;;15.40;68.00;;;;;;5096581;28;20032;-69
2022/05/13 08:06:03;;;;;;;15.85;6.47;;;15.50;68.80;;;;;;5096596;28;20020;-69
2022/05/13 08:08:35;;;;;;;15.85;6.38;;;15.50;68.30;;;;;;5114390;28;20051;-69
2022/05/13 08:11:04;;;;;;;11.88;6.70;;;15.60;67.50;;;;;;5114453;28;20020;-69
2022/05/13 08:13:31;;;;;;;10.73;6.18;;;15.60;67.80;;;;;;5114204;28;20107;-69
2022/05/13 08:15:58;;;;;;;12.75;6.05;;;15.70;67.20;;;;;;5114163;28;20033;-69
2022/05/13 08:18:24;;;;;;;10.98;5.85;;;15.70;67.00;;;;;;5113964;28;20052;-69
2022/05/13 08:20:50;;;;;;;12.02;6.28;;;15.70;66.00;;;;;;5114129;28;20029;-69
2022/05/13 08:23:17;;;;;;;11.15;5.85;;;15.70;65.90;;;;;;5114052;28;20024;-69
2022/05/13 08:25:44;;;;;;;12.43;5.90;;;15.70;66.20;;;;;;5114034;28;20048;-69
2022/05/13 08:28:11;;;;;;;13.55;5.82;;;15.70;66.50;;;;;;5113938;28;20023;-69
2022/05/13 08:30:38;;;;;;;9.60;5.88;;;15.70;66.30;;;;;;5113950;28;20020;-68
2022/05/13 08:33:08;;;;;;;11.98;5.72;;;15.70;65.90;;;;;;5113924;28;20027;-67
2022/05/13 08:35:35;;;;;;;9.57;6.00;;;15.70;65.30;;;;;;5079946;28;20406;-67
2022/05/13 08:38:01;;;;;;;10.77;6.70;;;15.70;64.90;;;;;;5095850;28;20085;-68
2022/05/13 08:40:50;;;;;;;14.70;7.15;;;15.70;65.30;;;;;;5096010;28;20088;-68
2022/05/13 08:43:19;;;;;;;12.10;5.68;;;15.70;65.30;;;;;;5113819;28;20044;-68
2022/05/13 08:45:50;;;;;;;13.60;6.32;;;15.60;65.00;;;;;;5095592;28;20336;-69
2022/05/13 08:48:18;;;;;;;12.25;5.75;;;15.60;65.30;;;;;;5113718;28;20024;-69
2022/05/13 08:51:13;;;;;;;16.13;6.13;;;15.50;65.50;;;;;;5113669;28;20024;-69
2022/05/13 08:53:52;;;;;;;11.43;6.22;;;15.50;65.40;;;;;;5113657;28;20120;-69
2022/05/13 08:56:29;;;;;;;8.98;5.68;;;15.50;66.20;;;;;;5113526;28;20024;-68
2022/05/13 08:59:10;;;;;;;10.32;6.40;;;15.30;66.20;;;;;;5095708;28;20032;-68
2022/05/13 09:01:57;;;;;;;12.57;6.18;;;15.30;66.90;;;;;;5113531;28;20024;-68
2022/05/13 09:04:46;;;;;;;14.02;6.40;;;15.30;66.80;;;;;;5113671;28;20020;-69
2022/05/13 09:07:16;;;;;;;12.00;5.57;;;15.30;66.70;;;;;;5095476;28;20031;-69
2022/05/13 09:09:46;;;;;;;13.73;5.88;;;15.30;66.40;;;;;;5095623;28;20046;-68
2022/05/13 09:12:23;;;;;;;15.50;6.20;;;15.30;66.90;;;;;;5095369;28;20058;-68
2022/05/13 09:15:00;;;;;;;9.70;5.78;;;15.60;67.80;;;;;;5113307;28;20032;-68
2022/05/13 09:17:35;;;;;;;10.75;5.68;;;15.80;68.80;;;;;;5113478;28;20103;-68
2022/05/13 09:20:13;;;;;;;8.90;4.78;;;16.00;66.40;;;;;;5113201;28;20052;-67
2022/05/13 09:22:54;;;;;;;14.50;5.55;;;16.10;66.90;;;;;;5113333;28;20024;-68
2022/05/13 09:25:27;;;;;;;10.40;5.40;;;16.10;63.90;;;;;;5113333;28;20060;-68
2022/05/13 09:28:10;;;;;;;11.95;4.55;;;16.10;64.00;;;;;;5095372;28;20162;-68
2022/05/13 09:30:45;;;;;;;10.15;4.55;;;16.10;63.90;;;;;;5113244;28;20099;-68
2022/05/13 09:33:24;;;;;;;8.90;4.10;;;16.00;63.40;;;;;;5095264;28;20035;-68
2022/05/13 09:35:54;;;;;;;8.88;4.03;;;16.00;62.90;;;;;;5113101;28;20020;-69
2022/05/13 09:38:26;;;;;;;9.18;4.20;;;16.10;63.00;;;;;;5113230;28;20024;-68
2022/05/13 09:41:06;;;;;;;11.47;4.80;;;16.10;63.50;;;;;;5113147;28;20023;-69
2022/05/13 09:43:50;;;;;;;9.73;4.50;;;16.20;64.00;;;;;;5113102;28;20250;-68
2022/05/13 09:46:33;;;;;;;7.90;4.50;;;16.30;64.10;;;;;;5095173;28;20031;-68
2022/05/13 09:49:05;;;;;;;10.98;4.50;;;16.40;63.10;;;;;;5113100;28;20035;-68
2022/05/13 09:51:36;;;;;;;7.63;3.63;;;16.60;62.70;;;;;;5113038;28;20041;-68
2022/05/13 09:54:05;;;;;;;6.75;3.45;;;16.80;60.90;;;;;;5112956;28;20035;-68
2022/05/13 09:56:39;;;;;;;7.60;3.92;;;16.80;59.30;;;;;;5112917;28;20061;-67
2022/05/13 09:59:14;;;;;;;8.50;4.10;;;16.70;60.70;;;;;;5112963;28;20027;-69
2022/05/13 10:01:39;;;;;;;12.35;4.05;;;16.80;59.80;;;;;;5113003;28;20016;-68
2022/05/13 10:04:11;;;;;;;7.03;3.15;;;16.90;59.50;;;;;;5112857;28;20035;-68
2022/05/13 10:06:39;;;;;;;11.77;3.60;;;16.90;58.90;;;;;;5113136;28;20020;-68
2022/05/13 10:15:15;;;;;;;6.82;2.92;;;16.80;58.80;;;;;;5112951;28;20059;-68
2022/05/13 10:17:47;;;;;;;8.73;3.05;;;16.90;58.50;;;;;;5078113;28;20173;-68
2022/05/13 10:20:25;;;;;;;6.43;2.88;;;17.00;57.40;;;;;;5094904;28;20052;-68
2022/05/13 10:23:06;;;;;;;5.63;2.78;;;17.00;56.80;;;;;;5112813;28;20028;-68
2022/05/13 10:25:44;;;;;;;6.45;3.10;;;17.00;57.30;;;;;;5116558;28;20024;-68
2022/05/13 10:28:16;;;;;;;7.25;2.60;;;17.20;57.40;;;;;;5116304;28;20020;-68
2022/05/13 10:30:54;;;;;;;4.35;2.72;;;17.30;56.80;;;;;;5116338;28;20050;-68
2022/05/13 10:33:28;;;;;;;4.80;2.50;;;17.20;56.70;;;;;;5098234;28;20050;-68
2022/05/13 10:36:07;;;;;;;8.73;2.65;;;17.30;53.80;;;;;;5116143;28;20054;-69
2022/05/13 10:38:40;;;;;;;7.47;2.75;;;17.40;54.50;;;;;;5116288;28;20020;-69
2022/05/13 10:41:22;;;;;;;4.47;2.40;;;17.50;55.30;;;;;;5116250;28;20076;-68
2022/05/13 10:43:56;;;;;;;6.22;2.53;;;17.60;54.80;;;;;;5116207;28;20062;-68
2022/05/13 10:46:37;;;;;;;6.15;2.47;;;17.60;55.20;;;;;;5115965;28;20020;-69
2022/05/13 10:49:03;;;;;;;5.57;2.45;;;17.70;53.50;;;;;;5115983;28;20089;-69
2022/05/13 10:51:39;;;;;;;6.72;2.20;;;17.80;54.50;;;;;;5115864;28;20028;-68
2022/05/13 10:54:32;;;;;;;7.15;2.40;;;17.80;52.10;;;;;;5115870;28;20099;-68
2022/05/13 10:57:32;;;;;;;4.20;2.50;;;17.80;51.70;;;;;;5115782;28;20032;-68
2022/05/13 11:00:11;;;;;;;8.18;2.38;;;17.80;51.80;;;;;;5115755;28;20043;-68
2022/05/13 11:03:12;;;;;;;10.55;2.90;;;17.80;52.00;;;;;;5115675;28;20023;-68
2022/05/13 11:06:10;;;;;;;6.18;2.80;;;17.90;51.80;;;;;;5097782;28;20092;-68
2022/05/13 11:08:50;;;;;;;5.05;2.10;;;18.00;51.70;;;;;;5108819;28;20047;-68
2022/05/13 11:11:38;;;;;;;5.88;2.60;;;18.10;51.50;;;;;;5115561;28;20031;-68
2022/05/13 11:14:16;;;;;;;7.03;2.67;;;18.10;52.20;;;;;;5115458;28;20020;-68
2022/05/13 11:17:06;;;;;;;5.45;2.63;;;18.20;52.70;;;;;;5115308;28;20505;-68
2022/05/13 11:19:54;;;;;;;9.38;2.83;;;18.20;52.10;;;;;;5097142;28;20044;-68
2022/05/13 11:22:47;;;;;;;3.97;2.17;;;18.20;51.90;;;;;;5097576;28;20043;-68
2022/05/13 11:28:33;;;;;;;6.53;2.30;;;18.20;50.90;;;;;;5115199;28;19953;-69
2022/05/13 11:31:37;;;;;;;5.30;2.40;;;18.20;52.50;;;;;;5097158;28;20036;-69
2022/05/13 11:34:20;;;;;;;5.75;2.38;;;18.30;52.10;;;;;;5115053;28;20028;-69
2022/05/13 11:36:58;;;;;;;5.18;2.90;;;18.30;50.70;;;;;;5114164;28;20387;-69
2022/05/13 11:39:44;;;;;;;6.28;2.67;;;18.50;51.00;;;;;;5097063;28;20489;-69
2022/05/13 11:42:15;;;;;;;4.10;2.45;;;18.60;50.80;;;;;;5114974;28;20086;-69
2022/05/13 11:45:00;;;;;;;5.82;2.80;;;18.60;49.40;;;;;;5096964;28;20027;-69
2022/05/13 11:47:36;;;;;;;4.95;2.45;;;18.70;50.00;;;;;;5114659;28;20086;-69
2022/05/13 11:50:03;;;;;;;7.80;2.63;;;18.70;49.80;;;;;;5114746;28;20030;-68
2022/05/13 11:52:35;;;;;;;5.43;2.35;;;18.80;48.80;;;;;;5114688;28;20031;-68
2022/05/13 11:55:29;;;;;;;5.18;2.03;;;18.90;48.80;;;;;;5096610;28;20032;-68
2022/05/13 11:57:55;;;;;;;6.10;2.10;;;18.80;49.30;;;;;;5071654;28;20036;-68
2022/05/13 12:00:35;;;;;;;4.13;1.83;;;18.60;48.10;;;;;;5096512;28;20020;-67
2022/05/13 12:03:03;;;;;;;4.03;1.92;;;18.60;47.90;;;;;;5114481;28;20020;-69
2022/05/13 12:05:38;;;;;;;7.85;2.10;;;18.70;47.40;;;;;;5114447;28;20028;-68
2022/05/13 12:08:30;;;;;;;3.50;1.80;;;18.70;47.70;;;;;;5114460;28;20062;-68
2022/05/13 12:11:02;;;;;;;5.00;2.10;;;18.80;48.90;;;;;;5114521;28;20023;-68
2022/05/13 12:13:27;;;;;;;5.70;2.40;;;18.90;51.30;;;;;;5114312;28;20024;-69
2022/05/13 12:16:25;;;;;;;7.25;2.28;;;18.70;49.60;;;;;;5114109;28;20035;-68
2022/05/13 12:19:12;;;;;;;7.53;2.40;;;18.60;47.80;;;;;;5114122;28;20048;-69
2022/05/13 12:21:50;;;;;;;5.07;2.25;;;18.60;48.60;;;;;;5114180;28;20055;-69
2022/05/13 12:24:21;;;;;;;6.72;2.22;;;18.50;48.10;;;;;;5114158;28;20028;-69
2022/05/13 12:26:52;;;;;;;4.85;2.10;;;18.60;49.80;;;;;;5114183;28;20012;-69
2022/05/13 12:29:56;;;;;;;7.70;2.67;;;18.60;50.40;;;;;;5113947;28;20032;-69
2022/05/13 12:32:34;;;;;;;4.38;2.05;;;18.70;48.10;;;;;;5114152;28;20017;-69
2022/05/13 12:38:09;;;;;;;5.50;2.40;;;18.90;48.40;;;;;;5031876;28;20034;-69
2022/05/13 12:40:51;;;;;;;7.40;2.25;;;18.90;50.00;;;;;;5032073;28;20095;-69
2022/05/13 12:43:21;;;;;;;6.00;2.47;;;19.00;49.20;;;;;;5081450;28;20039;-69
2022/05/13 12:46:14;;;;;;;5.55;2.45;;;19.10;50.30;;;;;;5095809;28;20054;-69
2022/05/13 12:49:21;;;;;;;4.45;1.90;;;19.30;47.40;;;;;;5113714;28;20031;-69
2022/05/13 12:52:09;;;;;;;4.82;1.63;;;19.30;45.30;;;;;;5012092;28;20035;-70
2022/05/13 12:55:01;;;;;;;5.75;1.90;;;19.30;45.70;;;;;;5112763;28;20036;-70
2022/05/13 12:57:51;;;;;;;5.90;2.00;;;19.40;46.90;;;;;;5096415;28;20059;-70
2022/05/13 13:00:21;;;;;;;5.43;2.35;;;19.60;46.20;;;;;;5113567;28;20023;-70
2022/05/13 13:02:53;;;;;;;5.65;2.40;;;19.50;47.10;;;;;;5113473;28;20410;-69
2022/05/13 13:05:27;;;;;;;7.22;2.35;;;19.50;47.40;;;;;;5113516;28;20032;-69
2022/05/13 13:08:11;;;;;;;5.50;2.20;;;19.50;46.60;;;;;;5113636;28;20422;-69
2022/05/13 13:10:48;;;;;;;4.78;2.38;;;19.70;45.70;;;;;;5113615;28;20016;-69
2022/05/13 13:13:22;;;;;;;6.78;2.83;;;19.70;45.90;;;;;;5113588;28;20111;-69
2022/05/13 13:15:56;;;;;;;5.93;2.38;;;19.70;45.20;;;;;;5113355;28;20028;-69
2022/05/13 13:18:33;;;;;;;5.95;2.30;;;19.70;44.00;;;;;;5113157;28;20064;-69
2022/05/13 13:21:07;;;;;;;4.68;2.25;;;19.80;43.60;;;;;;5113342;28;20076;-69
2022/05/13 13:23:35;;;;;;;6.93;2.80;;;19.80;44.70;;;;;;5113500;28;20032;-69
2022/05/13 13:26:03;;;;;;;7.43;3.05;;;19.80;45.50;;;;;;5113241;28;20028;-69
2022/05/13 13:28:35;;;;;;;7.28;3.00;;;19.80;45.90;;;;;;5113183;28;20028;-69
2022/05/13 13:31:06;;;;;;;6.68;3.95;;;20.00;45.50;;;;;;5113301;28;20024;-68
2022/05/13 13:33:43;;;;;;;6.10;3.55;;;19.90;44.60;;;;;;5113158;28;20031;-69